createdAt,value
2018-06-23T00:00:35.339Z,81.89
2018-06-23T00:01:35.593Z,82.18
2018-06-23T00:02:35.680Z,81.60
2018-06-23T00:03:35.284Z,81.79
2018-06-23T00:04:35.262Z,82.56
2018-06-23T00:05:35.273Z,82.61
2018-06-23T00:06:35.286Z,83.47
2018-06-23T00:07:35.521Z,82.90
2018-06-23T00:08:35.415Z,82.52
2018-06-23T00:09:35.331Z,83.09
2018-06-23T00:10:35.347Z,83.57
2018-06-23T00:11:35.363Z,83.38
2018-06-23T00:12:35.374Z,83.23
2018-06-23T00:13:35.388Z,83.09
2018-06-23T00:14:35.403Z,83.13
2018-06-23T00:15:35.417Z,83.61
2018-06-23T00:16:35.442Z,82.65
2018-06-23T00:17:35.473Z,82.46
2018-06-23T00:18:35.471Z,82.37
2018-06-23T00:19:35.477Z,82.61
2018-06-23T00:20:35.516Z,82.71
2018-06-23T00:21:35.709Z,83.00
2018-06-23T00:22:35.922Z,83.38
2018-06-23T00:23:35.547Z,84.05
2018-06-23T00:24:35.547Z,84.23
2018-06-23T00:25:35.581Z,84.43
2018-06-23T00:26:35.577Z,83.57
2018-06-23T00:27:35.590Z,84.05
2018-06-23T00:28:35.605Z,84.23
2018-06-23T00:29:35.621Z,83.86
2018-06-23T00:30:36.064Z,83.86
2018-06-23T00:31:35.782Z,83.76
2018-06-23T00:33:36.351Z,83.95
2018-06-23T00:34:35.692Z,83.86
2018-06-23T00:35:35.759Z,83.86
2018-06-23T00:36:35.745Z,84.20
2018-06-23T00:37:35.736Z,84.58
2018-06-23T00:38:35.749Z,84.39
2018-06-23T00:39:35.762Z,84.52
2018-06-23T00:40:35.780Z,84.33
2018-06-23T00:41:35.794Z,84.14
2018-06-23T00:42:35.808Z,83.38
2018-06-23T00:43:35.824Z,84.05
2018-06-23T00:44:35.835Z,83.86
2018-06-23T00:45:35.850Z,84.43
2018-06-23T00:46:35.865Z,85.38
2018-06-23T00:47:35.889Z,84.05
2018-06-23T00:48:35.897Z,83.57
2018-06-23T00:49:35.924Z,83.76
2018-06-23T00:50:35.922Z,82.90
2018-06-23T00:51:35.935Z,83.09
2018-06-23T00:52:35.949Z,83.09
2018-06-23T00:53:35.958Z,83.57
2018-06-23T00:54:35.970Z,83.62
2018-06-23T00:55:35.994Z,83.57
2018-06-23T00:56:36.059Z,83.34
2018-06-23T00:57:36.016Z,83.91
2018-06-23T00:58:36.028Z,83.72
2018-06-23T00:59:36.041Z,84.05
2018-06-23T01:00:36.055Z,83.09
2018-06-23T01:01:36.072Z,82.90
2018-06-23T01:02:36.085Z,83.28
2018-06-23T01:03:36.204Z,84.14
2018-06-23T01:04:36.167Z,83.28
2018-06-23T01:05:36.798Z,83.00
2018-06-23T01:06:36.625Z,82.14
2018-06-23T01:07:36.161Z,83.09
2018-06-23T01:08:36.169Z,82.71
2018-06-23T01:09:36.183Z,82.32
2018-06-23T01:10:36.198Z,82.61
2018-06-23T01:11:36.215Z,82.86
2018-06-23T01:12:36.227Z,82.95
2018-06-23T01:13:36.242Z,83.72
2018-06-23T01:14:36.255Z,83.28
2018-06-23T01:15:36.269Z,83.05
2018-06-23T01:16:36.283Z,82.95
2018-06-23T01:17:36.298Z,82.86
2018-06-23T01:18:36.316Z,82.95
2018-06-23T01:19:36.327Z,83.09
2018-06-23T01:20:36.591Z,83.18
2018-06-23T01:21:36.394Z,83.09
2018-06-23T01:22:36.369Z,83.00
2018-06-23T01:24:36.413Z,83.00
2018-06-23T01:25:36.473Z,83.00
2018-06-23T01:26:36.430Z,82.23
2018-06-23T01:27:36.443Z,83.18
2018-06-23T01:28:36.456Z,83.14
2018-06-23T01:29:36.469Z,82.81
2018-06-23T01:30:36.482Z,82.42
2018-06-23T01:31:36.497Z,83.18
2018-06-23T01:32:36.513Z,82.90
2018-06-23T01:33:36.531Z,82.14
2018-06-23T01:34:36.647Z,82.42
2018-06-23T01:35:36.623Z,82.04
2018-06-23T01:36:36.575Z,81.95
2018-06-23T01:37:36.609Z,82.57
2018-06-23T01:38:36.599Z,82.95
2018-06-23T01:39:36.609Z,82.86
2018-06-23T01:40:36.634Z,83.14
2018-06-23T01:41:36.639Z,82.86
2018-06-23T01:42:36.653Z,83.34
2018-06-23T01:43:36.666Z,83.14
2018-06-23T01:44:36.680Z,83.62
2018-06-23T01:45:36.696Z,83.81
2018-06-23T01:46:36.711Z,83.24
2018-06-23T01:47:36.725Z,83.62
2018-06-23T01:48:36.736Z,84.20
2018-06-23T01:49:36.752Z,83.81
2018-06-23T01:50:36.766Z,84.00
2018-06-23T01:51:36.780Z,83.72
2018-06-23T01:52:36.794Z,83.91
2018-06-23T01:53:36.807Z,83.53
2018-06-23T01:54:36.822Z,83.91
2018-06-23T01:55:36.835Z,83.91
2018-06-23T01:56:36.848Z,84.25
2018-06-23T01:57:37.001Z,84.48
2018-06-23T01:58:37.282Z,84.29
2018-06-23T01:59:37.205Z,84.00
2018-06-23T02:00:36.918Z,84.29
2018-06-23T02:01:36.919Z,84.25
2018-06-23T02:02:36.933Z,84.86
2018-06-23T02:03:36.996Z,84.34
2018-06-23T02:04:36.966Z,84.63
2018-06-23T02:05:37.157Z,85.25
2018-06-23T02:06:37.030Z,84.58
2018-06-23T02:07:37.047Z,84.67
2018-06-23T02:08:37.064Z,84.86
2018-06-23T02:09:37.066Z,84.96
2018-06-23T02:10:37.052Z,84.86
2018-06-23T02:11:37.059Z,85.25
2018-06-23T02:12:37.071Z,85.30
2018-06-23T02:13:37.084Z,85.25
2018-06-23T02:14:37.100Z,84.86
2018-06-23T02:15:37.113Z,85.15
2018-06-23T02:16:37.124Z,84.77
2018-06-23T02:17:37.140Z,84.86
2018-06-23T02:18:37.153Z,84.96
2018-06-23T02:19:37.170Z,84.77
2018-06-23T02:20:37.185Z,84.96
2018-06-23T02:21:37.358Z,85.44
2018-06-23T02:22:37.245Z,85.53
2018-06-23T02:23:37.224Z,85.39
2018-06-23T02:24:37.236Z,85.44
2018-06-23T02:25:37.260Z,85.63
2018-06-23T02:26:37.265Z,85.49
2018-06-23T02:27:37.803Z,85.82
2018-06-23T02:28:37.292Z,85.49
2018-06-23T02:29:37.578Z,85.11
2018-06-23T02:31:37.337Z,85.49
2018-06-23T02:32:37.348Z,85.77
2018-06-23T02:33:37.361Z,85.15
2018-06-23T02:34:37.380Z,85.72
2018-06-23T02:35:37.390Z,85.21
2018-06-23T02:36:37.402Z,85.68
2018-06-23T02:37:37.475Z,85.58
2018-06-23T02:38:37.434Z,85.15
2018-06-23T02:39:37.449Z,85.44
2018-06-23T02:40:37.460Z,85.53
2018-06-23T02:41:37.476Z,85.44
2018-06-23T02:42:37.483Z,85.34
2018-06-23T02:43:37.496Z,85.63
2018-06-23T02:44:37.514Z,85.25
2018-06-23T02:45:37.527Z,85.05
2018-06-23T02:46:37.555Z,84.86
2018-06-23T02:47:37.805Z,85.05
2018-06-23T02:48:37.582Z,85.72
2018-06-23T02:49:37.603Z,85.63
2018-06-23T02:50:37.596Z,85.39
2018-06-23T02:51:37.606Z,84.72
2018-06-23T02:52:37.622Z,85.44
2018-06-23T02:53:37.634Z,85.49
2018-06-23T02:54:37.709Z,85.77
2018-06-23T02:55:37.684Z,85.97
2018-06-23T02:56:37.680Z,86.54
2018-06-23T02:57:37.688Z,86.44
2018-06-23T02:58:38.066Z,85.58
2018-06-23T02:59:37.737Z,86.10
2018-06-23T03:00:37.782Z,85.63
2018-06-23T03:01:37.757Z,85.72
2018-06-23T03:02:37.778Z,86.01
2018-06-23T03:03:38.937Z,85.72
2018-06-23T03:04:37.785Z,85.63
2018-06-23T03:05:37.817Z,85.53
2018-06-23T03:06:37.817Z,86.01
2018-06-23T03:07:37.827Z,85.72
2018-06-23T03:08:37.843Z,86.39
2018-06-23T03:09:37.952Z,86.68
2018-06-23T03:10:38.526Z,86.63
2018-06-23T03:11:37.912Z,86.92
2018-06-23T03:12:37.896Z,87.02
2018-06-23T03:13:37.913Z,86.92
2018-06-23T03:14:37.924Z,87.02
2018-06-23T03:15:37.935Z,86.92
2018-06-23T03:16:37.967Z,87.21
2018-06-23T03:17:38.051Z,87.21
2018-06-23T03:18:38.047Z,87.30
2018-06-23T03:19:37.993Z,87.44
2018-06-23T03:20:38.004Z,87.06
2018-06-23T03:21:38.110Z,87.25
2018-06-23T03:22:38.032Z,87.92
2018-06-23T03:23:38.093Z,87.25
2018-06-23T03:24:38.060Z,87.25
2018-06-23T03:25:38.223Z,86.73
2018-06-23T03:26:38.285Z,87.25
2018-06-23T03:28:38.159Z,87.06
2018-06-23T03:29:38.131Z,87.25
2018-06-23T03:30:38.142Z,87.44
2018-06-23T03:31:38.156Z,87.35
2018-06-23T03:32:38.167Z,87.44
2018-06-23T03:33:38.183Z,87.06
2018-06-23T03:34:38.202Z,87.25
2018-06-23T03:35:38.209Z,87.15
2018-06-23T03:36:38.223Z,87.97
2018-06-23T03:37:38.237Z,87.78
2018-06-23T03:38:38.261Z,87.87
2018-06-23T03:39:38.263Z,87.63
2018-06-23T03:41:38.357Z,87.87
2018-06-23T03:42:38.311Z,87.59
2018-06-23T03:43:38.520Z,87.35
2018-06-23T03:44:38.333Z,87.82
2018-06-23T03:45:38.347Z,87.15
2018-06-23T03:46:38.384Z,87.06
2018-06-23T03:47:38.376Z,86.87
2018-06-23T03:48:38.484Z,87.15
2018-06-23T03:49:38.400Z,87.63
2018-06-23T03:50:38.433Z,87.78
2018-06-23T03:51:38.452Z,88.49
2018-06-23T03:52:38.441Z,87.35
2018-06-23T03:53:38.492Z,87.44
2018-06-23T03:54:38.469Z,88.01
2018-06-23T03:55:38.542Z,87.82
2018-06-23T03:56:38.505Z,87.92
2018-06-23T03:57:38.512Z,87.63
2018-06-23T03:58:39.064Z,88.30
2018-06-23T03:59:38.536Z,87.97
2018-06-23T04:01:38.563Z,89.16
2018-06-23T04:02:38.581Z,89.69
2018-06-23T04:03:38.619Z,89.64
2018-06-23T04:04:38.705Z,90.07
2018-06-23T04:05:39.302Z,90.55
2018-06-23T04:06:38.638Z,91.31
2018-06-23T04:07:38.646Z,90.73
2018-06-23T04:08:38.660Z,91.69
2018-06-23T04:09:38.673Z,92.17
2018-06-23T04:10:38.688Z,92.74
2018-06-23T04:11:38.730Z,93.12
2018-06-23T04:13:38.800Z,93.70
2018-06-23T04:14:39.412Z,94.07
2018-06-23T04:15:38.753Z,94.03
2018-06-23T04:16:38.773Z,94.41
2018-06-23T04:17:38.786Z,94.65
2018-06-23T04:18:38.795Z,94.46
2018-06-23T04:19:38.810Z,94.27
2018-06-23T04:20:38.821Z,94.56
2018-06-23T04:21:38.841Z,93.98
2018-06-23T04:22:38.848Z,93.88
2018-06-23T04:23:38.868Z,94.17
2018-06-23T04:24:38.876Z,93.98
2018-06-23T04:25:38.899Z,94.27
2018-06-23T04:26:39.009Z,94.17
2018-06-23T04:27:38.916Z,93.98
2018-06-23T04:28:38.953Z,93.98
2018-06-23T04:29:38.947Z,94.56
2018-06-23T04:30:38.959Z,94.46
2018-06-23T04:31:38.970Z,94.65
2018-06-23T04:32:39.035Z,94.56
2018-06-23T04:33:39.014Z,94.74
2018-06-23T04:34:39.402Z,94.36
2018-06-23T04:35:39.370Z,94.36
2018-06-23T04:36:39.119Z,94.36
2018-06-23T04:37:39.051Z,94.56
2018-06-23T04:38:39.112Z,94.36
2018-06-23T04:39:39.078Z,93.98
2018-06-23T04:40:39.466Z,94.74
2018-06-23T04:41:39.106Z,94.07
2018-06-23T04:42:39.119Z,93.79
2018-06-23T04:43:39.134Z,94.65
2018-06-23T04:44:39.151Z,95.22
2018-06-23T04:46:39.380Z,94.74
2018-06-23T04:47:39.233Z,95.32
2018-06-23T04:48:39.211Z,95.22
2018-06-23T04:49:39.220Z,95.12
2018-06-23T04:50:39.237Z,94.93
2018-06-23T04:51:39.257Z,95.51
2018-06-23T04:52:39.268Z,95.51
2018-06-23T04:53:39.270Z,95.12
2018-06-23T04:54:39.283Z,95.12
2018-06-23T04:55:39.303Z,95.17
2018-06-23T04:56:39.313Z,95.56
2018-06-23T04:57:39.346Z,95.56
2018-06-23T05:00:41.338Z,96.56
2018-06-23T05:02:39.494Z,97.71
2018-06-23T05:03:39.412Z,97.99
2018-06-23T05:04:40.821Z,98.18
2018-06-23T05:05:39.441Z,97.99
2018-06-23T05:06:39.448Z,98.37
2018-06-23T05:07:39.461Z,98.47
2018-06-23T05:08:39.474Z,98.08
2018-06-23T05:09:39.516Z,98.47
2018-06-23T05:10:39.623Z,98.27
2018-06-23T05:11:39.766Z,98.18
2018-06-23T05:12:40.620Z,98.08
2018-06-23T05:13:40.019Z,97.89
2018-06-23T05:14:39.556Z,98.47
2018-06-23T05:15:40.076Z,98.52
2018-06-23T05:17:39.707Z,98.13
2018-06-23T05:18:39.666Z,98.37
2018-06-23T05:19:39.629Z,98.52
2018-06-23T05:20:39.668Z,98.42
2018-06-23T05:21:39.678Z,98.75
2018-06-23T05:22:39.670Z,98.56
2018-06-23T05:23:39.680Z,98.66
2018-06-23T05:24:39.694Z,98.61
2018-06-23T05:25:39.707Z,98.23
2018-06-23T05:26:39.731Z,98.66
2018-06-23T05:27:39.735Z,98.27
2018-06-23T05:28:39.865Z,98.37
2018-06-23T05:29:39.864Z,98.85
2018-06-23T05:30:39.782Z,99.42
2018-06-23T05:31:39.817Z,99.52
2018-06-23T05:32:39.804Z,99.99
2018-06-23T05:33:39.816Z,99.71
2018-06-23T05:34:39.898Z,99.42
2018-06-23T05:35:39.847Z,98.99
2018-06-23T05:36:39.864Z,98.23
2018-06-23T05:37:39.933Z,98.42
2018-06-23T05:38:39.888Z,98.71
2018-06-23T05:39:39.964Z,98.52
2018-06-23T05:40:39.955Z,97.85
2018-06-23T05:41:39.942Z,97.66
2018-06-23T05:42:39.960Z,97.47
2018-06-23T05:43:39.956Z,97.56
2018-06-23T05:44:39.987Z,97.37
2018-06-23T05:45:39.983Z,97.37
2018-06-23T05:46:40.024Z,97.37
2018-06-23T05:47:40.014Z,97.37
2018-06-23T05:48:40.075Z,97.08
2018-06-23T05:49:40.048Z,97.37
2018-06-23T05:50:40.095Z,97.85
2018-06-23T05:51:40.068Z,97.08
2018-06-23T05:52:40.493Z,96.22
2018-06-23T05:53:40.367Z,96.42
2018-06-23T05:54:41.061Z,96.51
2018-06-23T05:55:40.133Z,96.32
2018-06-23T05:56:40.148Z,96.22
2018-06-23T05:57:40.164Z,96.42
2018-06-23T05:58:40.163Z,96.42
2018-06-23T05:59:40.176Z,96.03
2018-06-23T06:00:40.263Z,96.03
2018-06-23T06:02:40.473Z,95.51
2018-06-23T06:03:40.285Z,95.32
2018-06-23T06:04:40.248Z,94.84
2018-06-23T06:05:40.261Z,94.65
2018-06-23T06:06:40.276Z,94.36
2018-06-23T06:07:40.288Z,94.55
2018-06-23T06:08:40.302Z,93.02
2018-06-23T06:09:40.319Z,93.02
2018-06-23T06:10:40.693Z,92.93
2018-06-23T06:11:40.390Z,93.41
2018-06-23T06:12:40.379Z,93.50
2018-06-23T06:13:40.372Z,93.31
2018-06-23T06:14:40.388Z,93.60
2018-06-23T06:15:40.404Z,93.21
2018-06-23T06:16:40.415Z,93.12
2018-06-23T06:17:40.429Z,92.83
2018-06-23T06:18:40.444Z,93.02
2018-06-23T06:19:40.760Z,91.50
2018-06-23T06:20:40.613Z,91.59
2018-06-23T06:21:40.503Z,91.25
2018-06-23T06:22:40.515Z,90.78
2018-06-23T06:23:40.528Z,90.20
2018-06-23T06:24:40.576Z,90.59
2018-06-23T06:25:40.544Z,89.44
2018-06-23T06:26:40.559Z,89.67
2018-06-23T06:27:40.572Z,88.96
2018-06-23T06:28:40.587Z,88.29
2018-06-23T06:29:40.604Z,89.01
2018-06-23T06:30:40.615Z,88.96
2018-06-23T06:31:40.629Z,89.01
2018-06-23T06:32:40.641Z,87.95
2018-06-23T06:33:40.765Z,87.86
2018-06-23T06:35:41.581Z,86.80
2018-06-23T06:36:40.718Z,86.80
2018-06-23T06:37:40.715Z,86.80
2018-06-23T06:38:41.362Z,86.43
2018-06-23T06:39:40.831Z,86.14
2018-06-23T06:40:40.838Z,85.75
2018-06-23T06:41:41.302Z,84.94
2018-06-23T06:42:40.800Z,84.84
2018-06-23T06:43:40.802Z,84.75
2018-06-23T06:44:40.885Z,85.28
2018-06-23T06:45:40.832Z,84.94
2018-06-23T06:46:40.851Z,84.89
2018-06-23T06:47:40.863Z,85.13
2018-06-23T06:48:40.878Z,85.03
2018-06-23T06:49:40.893Z,84.65
2018-06-23T06:50:41.315Z,84.36
2018-06-23T06:52:40.965Z,85.03
2018-06-23T06:53:40.974Z,84.75
2018-06-23T06:54:40.964Z,84.27
2018-06-23T06:55:40.983Z,84.13
2018-06-23T06:56:40.997Z,84.23
2018-06-23T06:57:41.016Z,84.36
2018-06-23T06:58:41.024Z,84.99
2018-06-23T06:59:41.043Z,84.23
2018-06-23T07:00:41.257Z,84.32
2018-06-23T07:02:41.196Z,83.94
2018-06-23T07:03:41.104Z,83.94
2018-06-23T07:05:41.134Z,83.94
2018-06-23T07:06:41.150Z,83.69
2018-06-23T07:07:41.168Z,84.27
2018-06-23T07:08:41.174Z,84.08
2018-06-23T07:09:41.189Z,84.27
2018-06-23T07:10:41.214Z,83.50
2018-06-23T07:11:41.218Z,82.93
2018-06-23T07:12:41.235Z,82.64
2018-06-23T07:13:41.247Z,82.97
2018-06-23T07:14:41.262Z,82.01
2018-06-23T07:15:41.292Z,81.44
2018-06-23T07:16:41.293Z,81.44
2018-06-23T07:17:41.336Z,81.25
2018-06-23T07:18:41.329Z,81.88
2018-06-23T07:19:41.340Z,81.88
2018-06-23T07:20:41.362Z,82.26
2018-06-23T07:21:41.569Z,82.59
2018-06-23T07:22:41.389Z,82.26
2018-06-23T07:23:41.515Z,82.17
2018-06-23T07:25:41.907Z,81.97
2018-06-23T07:26:41.471Z,82.26
2018-06-23T07:27:41.464Z,82.64
2018-06-23T07:28:41.478Z,82.07
2018-06-23T07:29:41.538Z,81.97
2018-06-23T07:30:41.512Z,82.83
2018-06-23T07:31:41.517Z,82.26
2018-06-23T07:32:41.630Z,81.88
2018-06-23T07:33:41.548Z,81.59
2018-06-23T07:34:41.604Z,81.88
2018-06-23T07:35:41.578Z,81.88
2018-06-23T07:36:41.597Z,81.59
2018-06-23T07:37:41.611Z,81.34
2018-06-23T07:38:41.630Z,81.25
2018-06-23T07:39:41.711Z,80.58
2018-06-23T07:40:41.681Z,80.00
2018-06-23T07:41:41.769Z,80.10
2018-06-23T07:42:41.753Z,80.29
2018-06-23T07:43:41.732Z,80.29
2018-06-23T07:44:41.714Z,78.28
2018-06-23T07:45:41.781Z,77.08
2018-06-23T07:46:41.995Z,76.50
2018-06-23T07:47:41.760Z,76.02
2018-06-23T07:48:41.972Z,74.62
2018-06-23T07:49:42.094Z,75.10
2018-06-23T07:50:41.817Z,74.72
2018-06-23T07:51:41.878Z,74.52
2018-06-23T07:52:42.116Z,74.87
2018-06-23T07:53:41.849Z,75.29
2018-06-23T07:54:42.653Z,74.24
2018-06-23T07:55:41.879Z,74.97
2018-06-23T07:56:41.898Z,75.26
2018-06-23T07:58:42.071Z,75.07
2018-06-23T07:59:42.075Z,75.16
2018-06-23T08:00:41.990Z,75.64
2018-06-23T08:01:42.006Z,74.97
2018-06-23T08:02:41.996Z,75.68
2018-06-23T08:03:42.006Z,74.05
2018-06-23T08:04:42.018Z,74.24
2018-06-23T08:05:42.051Z,74.72
2018-06-23T08:06:42.052Z,73.86
2018-06-23T08:07:42.064Z,73.66
2018-06-23T08:08:42.077Z,74.05
2018-06-23T08:09:42.093Z,73.76
2018-06-23T08:10:42.113Z,74.52
2018-06-23T08:11:42.141Z,74.33
2018-06-23T08:12:42.274Z,74.62
2018-06-23T08:13:42.409Z,73.76
2018-06-23T08:14:42.223Z,75.29
2018-06-23T08:15:42.217Z,74.40
2018-06-23T08:16:42.209Z,74.30
2018-06-23T08:17:42.219Z,74.62
2018-06-23T08:18:42.242Z,73.57
2018-06-23T08:19:42.260Z,72.42
2018-06-23T08:20:42.260Z,72.23
2018-06-23T08:21:42.278Z,71.27
2018-06-23T08:22:42.294Z,70.31
2018-06-23T08:23:42.308Z,70.64
2018-06-23T08:24:42.534Z,69.20
2018-06-23T08:25:42.343Z,68.72
2018-06-23T08:26:42.642Z,68.81
2018-06-23T08:27:42.374Z,68.14
2018-06-23T08:28:42.398Z,68.05
2018-06-23T08:29:42.446Z,68.91
2018-06-23T08:30:42.773Z,68.91
2018-06-23T08:31:42.455Z,68.72
2018-06-23T08:32:42.452Z,68.95
2018-06-23T08:33:42.464Z,68.72
2018-06-23T08:34:42.482Z,68.91
2018-06-23T08:35:42.496Z,67.95
2018-06-23T08:36:42.529Z,67.79
2018-06-23T08:37:42.557Z,67.38
2018-06-23T08:38:42.546Z,68.81
2018-06-23T08:39:42.603Z,68.56
2018-06-23T08:40:42.572Z,67.89
2018-06-23T08:41:42.637Z,67.89
2018-06-23T08:42:42.614Z,68.27
2018-06-23T08:43:42.818Z,67.32
2018-06-23T08:44:42.682Z,68.24
2018-06-23T08:45:42.665Z,68.66
2018-06-23T08:46:42.671Z,68.46
2018-06-23T08:47:42.684Z,67.18
2018-06-23T08:48:42.702Z,67.76
2018-06-23T08:49:42.718Z,67.76
2018-06-23T08:50:42.754Z,68.21
2018-06-23T08:51:42.746Z,69.29
2018-06-23T08:53:42.891Z,69.35
2018-06-23T08:54:42.844Z,69.10
2018-06-23T08:55:42.861Z,68.24
2018-06-23T08:56:44.633Z,67.38
2018-06-23T08:57:42.850Z,67.38
2018-06-23T08:58:42.855Z,66.93
2018-06-23T08:59:42.871Z,66.64
2018-06-23T09:00:42.885Z,65.88
2018-06-23T09:01:42.947Z,64.56
2018-06-23T09:02:43.010Z,64.18
2018-06-23T09:03:42.932Z,64.56
2018-06-23T09:04:42.948Z,65.97
2018-06-23T09:05:42.966Z,65.62
2018-06-23T09:07:43.036Z,65.91
2018-06-23T09:08:43.011Z,66.10
2018-06-23T09:09:43.026Z,66.00
2018-06-23T09:10:43.238Z,66.83
2018-06-23T09:11:43.059Z,67.12
2018-06-23T09:12:43.303Z,67.22
2018-06-23T09:13:43.152Z,66.74
2018-06-23T09:14:43.105Z,66.49
2018-06-23T09:15:45.585Z,65.33
2018-06-23T09:16:43.927Z,64.28
2018-06-23T09:17:43.953Z,63.79
2018-06-23T09:18:44.675Z,63.99
2018-06-23T09:20:43.328Z,64.47
2018-06-23T09:21:43.339Z,65.14
2018-06-23T09:22:43.250Z,65.33
2018-06-23T09:23:43.246Z,65.27
2018-06-23T09:24:43.264Z,65.23
2018-06-23T09:25:43.310Z,65.43
2018-06-23T09:26:43.293Z,66.00
2018-06-23T09:27:43.313Z,65.23
2018-06-23T09:28:43.348Z,65.62
2018-06-23T09:29:43.346Z,65.62
2018-06-23T09:30:43.362Z,65.14
2018-06-23T09:31:43.380Z,65.33
2018-06-23T09:32:43.391Z,64.95
2018-06-23T09:33:43.409Z,65.43
2018-06-23T09:34:43.424Z,64.76
2018-06-23T09:35:44.673Z,64.09
2018-06-23T09:36:43.473Z,64.18
2018-06-23T09:38:43.902Z,65.30
2018-06-23T09:39:43.607Z,65.49
2018-06-23T09:40:43.541Z,65.23
2018-06-23T09:41:43.535Z,65.05
2018-06-23T09:42:44.970Z,65.14
2018-06-23T09:43:43.564Z,65.23
2018-06-23T09:44:43.744Z,65.81
2018-06-23T09:45:43.601Z,65.33
2018-06-23T09:46:44.783Z,65.62
2018-06-23T09:47:44.647Z,65.81
2018-06-23T09:48:43.643Z,66.10
2018-06-23T09:49:43.660Z,66.55
2018-06-23T09:50:43.677Z,67.50
2018-06-23T09:51:43.684Z,67.79
2018-06-23T09:52:43.848Z,68.40
2018-06-23T09:53:44.805Z,68.40
2018-06-23T09:55:43.848Z,65.72
2018-06-23T09:56:44.272Z,66.10
2018-06-23T09:57:44.617Z,65.33
2018-06-23T09:58:44.553Z,65.62
2018-06-23T10:00:43.828Z,65.43
2018-06-23T10:01:43.849Z,64.37
2018-06-23T10:02:44.986Z,64.18
2018-06-23T10:03:43.874Z,63.73
2018-06-23T10:04:43.890Z,63.70
2018-06-23T10:05:43.908Z,63.12
2018-06-23T10:06:43.922Z,63.70
2018-06-23T10:07:43.949Z,63.79
2018-06-23T10:08:43.967Z,64.09
2018-06-23T10:09:43.980Z,64.37
2018-06-23T10:10:43.999Z,64.28
2018-06-23T10:11:44.056Z,64.47
2018-06-23T10:12:44.928Z,63.92
2018-06-23T10:13:44.062Z,62.10
2018-06-23T10:14:44.653Z,63.28
2018-06-23T10:15:44.100Z,61.46
2018-06-23T10:16:44.083Z,61.72
2018-06-23T10:19:44.335Z,61.11
2018-06-23T10:20:44.148Z,59.69
2018-06-23T10:21:44.166Z,59.09
2018-06-23T10:22:44.239Z,59.95
2018-06-23T10:23:44.350Z,60.05
2018-06-23T10:24:44.559Z,59.76
2018-06-23T10:25:44.233Z,59.92
2018-06-23T10:26:44.452Z,61.52
2018-06-23T10:27:44.656Z,61.33
2018-06-23T10:28:44.284Z,60.40
2018-06-23T10:29:44.296Z,60.50
2018-06-23T10:30:44.326Z,61.20
2018-06-23T10:31:44.358Z,60.53
2018-06-23T10:32:44.346Z,59.12
2018-06-23T10:33:44.364Z,59.89
2018-06-23T10:35:46.019Z,58.99
2018-06-23T10:37:44.439Z,60.43
2018-06-23T10:38:44.834Z,59.79
2018-06-23T10:39:44.632Z,59.19
2018-06-23T10:40:44.775Z,59.09
2018-06-23T10:41:44.667Z,59.86
2018-06-23T10:42:45.310Z,59.60
2018-06-23T10:43:44.827Z,60.46
2018-06-23T10:44:45.146Z,59.79
2018-06-23T10:46:45.579Z,59.09
2018-06-23T10:47:44.914Z,59.02
2018-06-23T10:48:44.724Z,58.51
2018-06-23T10:49:44.637Z,59.47
2018-06-23T10:50:44.773Z,59.47
2018-06-23T10:51:44.937Z,59.76
2018-06-23T10:53:44.914Z,59.95
2018-06-23T10:54:44.831Z,58.83
2018-06-23T10:55:44.890Z,58.03
2018-06-23T10:56:44.864Z,58.22
2018-06-23T10:57:44.959Z,58.70
2018-06-23T10:58:45.036Z,59.12
2018-06-23T10:59:45.495Z,58.83
2018-06-23T11:00:44.882Z,59.02
2018-06-23T11:01:45.334Z,58.18
2018-06-23T11:02:44.859Z,56.65
2018-06-23T11:03:44.909Z,56.48
2018-06-23T11:04:45.633Z,56.74
2018-06-23T11:05:44.958Z,57.51
2018-06-23T11:06:44.909Z,57.29
2018-06-23T11:07:44.935Z,56.81
2018-06-23T11:08:44.954Z,55.85
2018-06-23T11:09:45.101Z,56.52
2018-06-23T11:10:45.131Z,58.73
2018-06-23T11:11:45.028Z,58.37
2018-06-23T11:13:45.144Z,58.09
2018-06-23T11:14:45.049Z,58.18
2018-06-23T11:15:45.365Z,56.26
2018-06-23T11:16:45.252Z,56.36
2018-06-23T11:18:45.275Z,55.23
2018-06-23T11:19:45.445Z,55.71
2018-06-23T11:20:45.154Z,55.23
2018-06-23T11:21:45.174Z,55.11
2018-06-23T11:22:45.282Z,56.16
2018-06-23T11:23:45.728Z,55.76
2018-06-23T11:24:45.251Z,57.29
2018-06-23T11:25:45.249Z,58.35
2018-06-23T11:26:45.823Z,57.45
2018-06-23T11:27:45.271Z,59.09
2018-06-23T11:28:45.329Z,58.99
2018-06-23T11:29:45.639Z,60.53
2018-06-23T11:30:45.784Z,59.09
2018-06-23T11:31:46.415Z,59.28
2018-06-23T11:32:45.417Z,59.25
2018-06-23T11:34:45.427Z,60.05
2018-06-23T11:35:45.406Z,58.99
2018-06-23T11:37:45.488Z,57.68
2018-06-23T11:38:45.772Z,57.13
2018-06-23T11:39:45.856Z,55.08
2018-06-23T11:40:45.775Z,56.33
2018-06-23T11:41:45.670Z,56.14
2018-06-23T11:42:45.933Z,55.73
2018-06-23T11:43:45.751Z,56.01
2018-06-23T11:44:46.988Z,56.88
2018-06-23T11:45:45.555Z,56.49
2018-06-23T11:46:46.506Z,56.88
2018-06-23T11:47:46.144Z,56.68
2018-06-23T11:48:45.731Z,56.30
2018-06-23T11:50:45.868Z,57.20
2018-06-23T11:51:45.732Z,56.14
2018-06-23T11:52:45.795Z,56.81
2018-06-23T11:55:46.446Z,57.22
2018-06-23T11:56:45.806Z,56.52
2018-06-23T11:57:46.369Z,55.27
2018-06-23T11:58:46.360Z,55.46
2018-06-23T11:59:45.824Z,56.23
2018-06-23T12:01:45.925Z,56.16
2018-06-23T12:02:45.955Z,55.27
2018-06-23T12:03:45.920Z,55.37
2018-06-23T12:04:45.879Z,55.40
2018-06-23T12:05:46.289Z,56.07
2018-06-23T12:07:47.335Z,55.30
2018-06-23T12:08:45.976Z,54.53
2018-06-23T12:09:45.992Z,54.72
2018-06-23T12:10:46.395Z,55.78
2018-06-23T12:11:46.034Z,54.72
2018-06-23T12:12:46.108Z,56.04
2018-06-23T12:13:46.020Z,55.56
2018-06-23T12:14:46.047Z,57.39
2018-06-23T12:15:46.733Z,57.00
2018-06-23T12:17:46.084Z,57.13
2018-06-23T12:18:46.101Z,55.78
2018-06-23T12:19:46.117Z,56.29
2018-06-23T12:20:46.135Z,56.67
2018-06-23T12:21:46.153Z,55.07
2018-06-23T12:22:46.169Z,55.00
2018-06-23T12:23:47.029Z,53.33
2018-06-23T12:24:46.271Z,52.85
2018-06-23T12:25:46.224Z,54.20
2018-06-23T12:26:46.384Z,54.20
2018-06-23T12:27:46.285Z,54.49
2018-06-23T12:28:48.186Z,54.08
2018-06-23T12:29:46.606Z,54.72
2018-06-23T12:30:46.303Z,54.75
2018-06-23T12:31:46.320Z,54.08
2018-06-23T12:33:46.362Z,52.75
2018-06-23T12:34:46.399Z,53.53
2018-06-23T12:35:46.464Z,53.07
2018-06-23T12:36:46.421Z,51.62
2018-06-23T12:37:46.436Z,51.07
2018-06-23T12:38:46.642Z,50.81
2018-06-23T12:39:46.460Z,50.71
2018-06-23T12:40:46.482Z,49.55
2018-06-23T12:41:46.547Z,49.91
2018-06-23T12:42:46.523Z,51.87
2018-06-23T12:43:46.538Z,49.84
2018-06-23T12:44:46.558Z,51.41
2018-06-23T12:45:47.048Z,48.79
2018-06-23T12:46:46.599Z,49.63
2018-06-23T12:47:46.618Z,51.26
2018-06-23T12:48:46.636Z,51.79
2018-06-23T12:49:46.655Z,52.75
2018-06-23T12:50:46.675Z,53.21
2018-06-23T12:51:46.942Z,53.05
2018-06-23T12:52:47.176Z,53.62
2018-06-23T12:53:47.275Z,54.42
2018-06-23T12:54:46.785Z,53.39
2018-06-23T12:55:46.768Z,50.42
2018-06-23T12:56:47.070Z,50.40
2018-06-23T12:57:46.811Z,50.40
2018-06-23T12:58:46.852Z,50.85
2018-06-23T13:00:46.971Z,49.63
2018-06-23T13:01:46.900Z,48.35
2018-06-23T13:02:47.261Z,48.21
2018-06-23T13:03:46.931Z,46.20
2018-06-23T13:04:47.194Z,45.07
2018-06-23T13:05:46.974Z,45.40
2018-06-23T13:06:46.998Z,43.71
2018-06-23T13:07:47.018Z,42.62
2018-06-23T13:08:47.577Z,42.68
2018-06-23T13:09:47.090Z,45.92
2018-06-23T13:10:47.085Z,47.24
2018-06-23T13:11:47.109Z,48.57
2018-06-23T13:12:47.130Z,48.86
2018-06-23T13:13:47.148Z,49.34
2018-06-23T13:14:47.606Z,50.47
2018-06-23T13:15:47.188Z,50.09
2018-06-23T13:16:47.206Z,49.99
2018-06-23T13:17:47.227Z,50.54
2018-06-23T13:18:47.247Z,50.73
2018-06-23T13:19:47.318Z,51.21
2018-06-23T13:20:47.508Z,53.40
2018-06-23T13:21:47.319Z,52.34
2018-06-23T13:22:47.343Z,53.11
2018-06-23T13:23:48.135Z,52.92
2018-06-23T13:24:48.706Z,53.21
2018-06-23T13:25:47.400Z,52.83
2018-06-23T13:26:47.965Z,52.75
2018-06-23T13:27:47.544Z,52.71
2018-06-23T13:28:47.780Z,50.40
2018-06-23T13:30:47.479Z,53.17
2018-06-23T13:32:47.507Z,51.31
2018-06-23T13:33:47.525Z,52.44
2018-06-23T13:34:47.543Z,52.42
2018-06-23T13:35:47.762Z,53.19
2018-06-23T13:36:47.656Z,53.47
2018-06-23T13:37:47.599Z,54.05